Bay Area Weather


DO NOT USE THIS INFORMATION FOR FLIGHT PLANNING AND/OR NAVIGATION

Bay Area Weather Map


Current METARs

Observation for Reid-Hillview (KRHV) at 07/27/2017 18:47:00 PDT
Airspace now is DELTA. Weather outlook: VFR - visibility 10, ceiling 18000.
station: KRHV
type: routine report, cycle 2 (automatic report)
time: Fri Jul 28 01:47:00 2017
temperature: 30.0 C
dew point: 13.0 C
wind: WNW at 4 knots
visibility: 10 miles
pressure: 1012.5 mb
sky: clear
METAR: KRHV 280147Z 30004KT 10SM SKC 30/13 A2990
Observation for San Jose (KSJC) at 07/27/2017 18:53:00 PDT
Airspace now is CHARLIE. Weather outlook: VFR - visibility 10, ceiling 18000.
station: KSJC
type: routine report, cycle 2 (automatic report)
time: Fri Jul 28 01:53:00 2017
temperature: 26.1 C
dew point: 15.0 C
wind: W at 8 knots
visibility: 10 miles
pressure: 1011.9 mb
sky: clear
sea-level pressure: 1011.8 mb
remarks:
- Automated station (type 2)
METAR: KSJC 280153Z 28008KT 10SM CLR 26/15 A2988 RMK AO2 SLP118 T02610150
Observation for Moffett Field (KNUQ) at 07/27/2017 18:56:00 PDT
Airspace now is DELTA. Weather outlook: VFR - visibility 10, ceiling 18000.
station: KNUQ
type: routine report, cycle 2 (automatic report)
time: Fri Jul 28 01:56:00 2017
temperature: 22.2 C
dew point: 15.6 C
wind: NW at 9 knots
visibility: 10 miles
pressure: 1012.2 mb
sky: clear
sea-level pressure: 1012.5 mb
remarks:
- Automated station (type 2)
METAR: KNUQ 280156Z AUTO 32009KT 10SM CLR 22/16 A2989 RMK AO2 SLP125 T02220156
Observation for Palo Alto (KPAO) at 07/27/2017 18:47:00 PDT
Airspace now is DELTA. Weather outlook: VFR - visibility 10, ceiling 18000.
station: KPAO
type: routine report, cycle 2 (automatic report)
time: Fri Jul 28 01:47:00 2017
temperature: 23.0 C
dew point: 17.0 C
wind: NW at 12 knots
visibility: 10 miles
pressure: 1012.2 mb
sky: clear
METAR: KPAO 280147Z 32012KT 10SM SKC 23/17 A2989
Observation for San Carlos (KSQL) at 07/27/2017 18:47:00 PDT
Airspace now is DELTA. Weather outlook: VFR - visibility 10, ceiling 18000.
station: KSQL
type: routine report, cycle 2 (automatic report)
time: Fri Jul 28 01:47:00 2017
temperature: 25.0 C
dew point: 14.0 C
wind: N at 8 knots
visibility: 10 miles
pressure: 1012.2 mb
sky: clear
METAR: KSQL 280147Z 36008KT 10SM SKC 25/14 A2989
Observation for Half Moon Bay (KHAF) at 07/27/2017 19:15:00 PDT
Airspace now is GOLF. Weather outlook: Limited IFR - visibility 7, ceiling 500.
station: KHAF
type: routine report, cycle 2 (automatic report)
time: Fri Jul 28 02:15:00 2017
temperature: 14.0 C
dew point: 13.0 C
wind: NW at 8 knots
visibility: 7 miles
pressure: 1013.2 mb
sky: broken clouds at 500 feet
remarks:
- Automated station (type 2)
METAR: KHAF 280215Z AUTO 32008KT 7SM BKN005 14/13 A2992 RMK AO2
Observation for San Francisco (KSFO) at 07/27/2017 18:56:00 PDT
Airspace now is BRAVO. Weather outlook: VFR - visibility 10, ceiling 18000.
station: KSFO
type: routine report, cycle 2 (automatic report)
time: Fri Jul 28 01:56:00 2017
temperature: 18.3 C
dew point: 12.2 C
wind: NW at 18 knots
visibility: 10 miles
pressure: 1012.2 mb
sky: a few clouds at 600 feet
sea-level pressure: 1012.1 mb
remarks:
- Automated station (type 2)
METAR: KSFO 280156Z 31018KT 10SM FEW006 18/12 A2989 RMK AO2 SLP121 T01830122
Observation for Oakland (KOAK) at 07/27/2017 18:53:00 PDT
Airspace now is CHARLIE. Weather outlook: VFR - visibility 10, ceiling 18000.
station: KOAK
type: routine report, cycle 2 (automatic report)
time: Fri Jul 28 01:53:00 2017
temperature: 19.4 C
dew point: 14.4 C
wind: WNW at 13 knots
visibility: 10 miles
pressure: 1012.5 mb
sky: clear
sea-level pressure: 1012.3 mb
remarks:
- Automated station (type 2)
METAR: KOAK 280153Z 29013KT 10SM CLR 19/14 A2990 RMK AO2 SLP123 T01940144
Observation for Hayward Executive (KHWD) at 07/27/2017 18:54:00 PDT
Airspace now is DELTA. Weather outlook: VFR - visibility 10, ceiling 18000.
station: KHWD
type: routine report, cycle 2 (automatic report)
time: Fri Jul 28 01:54:00 2017
temperature: 22.8 C
dew point: 13.3 C
wind: W at 9 knots
visibility: 10 miles
pressure: 1012.2 mb
sky: clear
remarks:
- Automated station (type 2)
- SLPNO
METAR: KHWD 280154Z 28009KT 10SM CLR 23/13 A2989 RMK AO2 SLPNO T02280133
Observation for Livermore (KLVK) at 07/27/2017 18:53:00 PDT
Airspace now is DELTA. Weather outlook: VFR - visibility 10, ceiling 18000.
station: KLVK
type: routine report, cycle 2 (automatic report)
time: Fri Jul 28 01:53:00 2017
temperature: 32.2 C
dew point: 5.0 C
wind: W at 14 knots
visibility: 10 miles
pressure: 1011.2 mb
sky: clear
sea-level pressure: 1010.6 mb
remarks:
- Automated station (type 2)
METAR: KLVK 280153Z 28014KT 10SM CLR 32/05 A2986 RMK AO2 SLP106 T03220050
Observation for South County (KE16) at 07/27/2017 19:15:00 PDT
Airspace now is GOLF. Weather outlook: VFR - visibility 10, ceiling 18000.
station: KE16
type: routine report, cycle 2 (automatic report)
time: Fri Jul 28 02:15:00 2017
temperature: 25.0 C
dew point: 12.0 C
wind: SSE at 7 knots
visibility: 10 miles
pressure: 1012.5 mb
sky: clear
remarks:
- Automated station (type 2)
METAR: KE16 280215Z AUTO 15007KT 10SM CLR 25/12 A2990 RMK AO2
Observation for Hollister (KCVH) at 07/27/2017 19:10:00 PDT
Airspace now is GOLF. Weather outlook: VFR - visibility 10, ceiling 18000.
station: KCVH
type: routine report, cycle 2 (automatic report)
time: Fri Jul 28 02:10:00 2017
temperature: 23.0 C
dew point: 10.0 C
wind: WSW at 13 knots
visibility: 10 miles
pressure: 1012.5 mb
sky: clear
remarks:
- Automated station
METAR: KCVH 280210Z AUTO 25013KT 10SM CLR 23/10 A2990 RMK AO1
Observation for Watsonville (KWVI) at 07/27/2017 19:22:00 PDT
Airspace now is GOLF. Weather outlook: Limited IFR - visibility 6, ceiling 400.
station: KWVI
type: routine report, cycle 2 (automatic report)
time: Fri Jul 28 02:22:00 2017
temperature: 13.9 C
dew point: 13.9 C
wind: SSE at 5 knots
visibility: 6 miles
pressure: 1013.9 mb
weather: mist
sky: overcast at 400 feet
remarks:
- Automated station (type 2)
METAR: KWVI 280222Z AUTO 16005KT 6SM BR OVC004 14/14 A2994 RMK AO2 T01390139
Observation for Napa County (KAPC) at 07/27/2017 18:54:00 PDT
Airspace now is DELTA. Weather outlook: VFR - visibility 10, ceiling 18000.
station: KAPC
type: routine report, cycle 2 (automatic report)
time: Fri Jul 28 01:54:00 2017
temperature: 24.4 C
dew point: 15.0 C
wind: SSW at 7 knots
visibility: 10 miles
pressure: 1011.2 mb
sky: clear
sea-level pressure: 1010.3 mb
remarks:
- Automated station (type 2)
- PNO $
METAR: KAPC 280154Z 20007KT 10SM CLR 24/15 A2986 RMK AO2 SLP103 T02440150 PNO $
Observation for Santa Rosa (KSTS) at 07/27/2017 18:53:00 PDT
Airspace now is DELTA. Weather outlook: VFR - visibility 10, ceiling 18000.
station: KSTS
type: routine report, cycle 2 (automatic report)
time: Fri Jul 28 01:53:00 2017
temperature: 26.1 C
dew point: 12.8 C
wind: SSE at 7 knots
visibility: 10 miles
pressure: 1010.8 mb
sky: clear
sea-level pressure: 1010.2 mb
remarks:
- Automated station (type 2)
METAR: KSTS 280153Z 15007KT 10SM CLR 26/13 A2985 RMK AO2 SLP102 T02610128

Approximate Bay Tour Route